Main page
METAR-TAF:

METAR-TAF

Airports :

Kephalonia International Airport

Kefalonia, Greece

latitude: 38-07N, longitude: 020-30E, elevation: 19 m

Current weather observation

The report was made 30 minutes ago, at 02:50 UTC
Wind 11 kt from the East/Southeast
Temperature 20°C
Humidity 78%
Pressure 1018 hPa
Visibility 10 km or more
Few clouds at a height of 1800 ft
Scattered clouds at a height of 7000 ft

METAR: LGKF 160250Z 12011KT 9999 FEW018 SCT070 20/16 Q1018

Time: 06:20 (03:20 UTC)

Forecast

The report was made 1 hour and 20 minutes ago, at 02:00 UTC
Forecast valid from 16 at 03 UTC to 16 at 12 UTC
Wind 8 kt from the South
Visibility 10 km or more
Few clouds at a height of 1800 ft
Scattered clouds at a height of 3000 ft

TAF: LGKF 160200Z 1603/1612 17008KT 9999 FEW018 SCT030

Weather observations and forecasts of more than 4000 airports (METAR and TAF reports).

The available stations are represented by yellow and red dots on the map.

Hover mouse over dot to see the name of the station.

Then click to see weather observations and forecasts.

To change the map : click on the green buttons with a black cross to zoom in, on the green button with a dash to zoom out, or on the green arrows for adjacent maps.


METAR-TAF: